Time;durP1;ratioP1;P1;durP2;ratioP2;P2;SDS_P1;SDS_P2;PMS_P1;PMS_P2;Temp;Humidity;BMP_temperature;BMP_pressure;BME280_temperature;BME280_humidity;BME280_pressure;Samples;Min_cycle;Max_cycle;Signal;HPM_P1;HPM_P2
2023/12/24 00:01:06;;;;;;;2.33;1.10;;;;;;;6.82;100.00;98059.22;4996644;28;20046;-66
2023/12/24 00:03:33;;;;;;;1.67;1.08;;;;;;;6.69;100.00;98042.72;5005297;28;20483;-66
2023/12/24 00:06:00;;;;;;;4.90;1.50;;;;;;;6.71;100.00;98033.91;5011758;28;20534;-66
2023/12/24 00:08:30;;;;;;;2.35;1.15;;;;;;;6.88;100.00;98043.19;5007261;28;20061;-66
2023/12/24 00:10:57;;;;;;;2.55;1.10;;;;;;;6.94;100.00;98047.16;5005345;28;20050;-66
2023/12/24 00:13:26;;;;;;;3.13;1.20;;;;;;;7.02;100.00;98047.50;5010106;28;20178;-66
2023/12/24 00:15:52;;;;;;;3.33;1.30;;;;;;;7.07;100.00;98044.59;5010224;28;20506;-66
2023/12/24 00:18:19;;;;;;;2.85;1.30;;;;;;;7.05;100.00;98034.28;5008524;28;20046;-66
2023/12/24 00:20:46;;;;;;;3.47;1.55;;;;;;;7.08;100.00;98036.66;5008521;28;20042;-66
2023/12/24 00:23:13;;;;;;;1.90;1.10;;;;;;;7.14;100.00;98022.44;5011153;28;20053;-66
2023/12/24 00:25:40;;;;;;;2.08;1.20;;;;;;;7.18;100.00;98021.28;5010698;28;20045;-66
2023/12/24 00:28:07;;;;;;;3.35;1.20;;;;;;;7.28;100.00;98037.97;5009128;28;20053;-66
2023/12/24 00:30:34;;;;;;;3.13;1.30;;;;;;;7.37;100.00;98039.13;5002363;28;20050;-66
2023/12/24 00:33:01;;;;;;;2.40;1.10;;;;;;;7.37;100.00;98039.13;5011264;28;20085;-66
2023/12/24 00:35:28;;;;;;;2.78;1.23;;;;;;;7.28;100.00;98035.34;5010795;28;20506;-66
2023/12/24 00:37:58;;;;;;;3.65;1.30;;;;;;;7.14;100.00;98028.47;5011575;28;20073;-66
2023/12/24 00:40:25;;;;;;;2.60;1.13;;;;;;;7.01;100.00;98014.59;5004466;28;20137;-66
2023/12/24 00:42:52;;;;;;;3.28;1.25;;;;;;;6.83;100.00;98011.44;4989968;28;20060;-66
2023/12/24 00:45:19;;;;;;;1.60;1.10;;;;;;;6.78;100.00;98029.97;5010544;28;20046;-66
2023/12/24 00:47:46;;;;;;;2.30;1.20;;;;;;;6.65;100.00;98032.50;5007579;28;20073;-66
2023/12/24 00:50:13;;;;;;;2.60;1.40;;;;;;;6.49;100.00;98034.44;5006737;28;20050;-66
2023/12/24 00:52:40;;;;;;;2.90;1.35;;;;;;;6.42;100.00;98015.78;5007462;28;20077;-65
2023/12/24 00:55:07;;;;;;;3.38;1.70;;;;;;;6.33;100.00;98006.00;5010969;28;20069;-66
2023/12/24 00:57:36;;;;;;;3.83;1.45;;;;;;;6.19;100.00;97999.06;5009886;28;20555;-66
2023/12/24 01:00:05;;;;;;;4.55;1.50;;;;;;;6.17;100.00;98000.94;5009402;28;20046;-66
2023/12/24 01:02:32;;;;;;;4.10;1.50;;;;;;;6.12;100.00;97991.78;5011364;28;20060;-66
2023/12/24 01:04:58;;;;;;;3.17;1.40;;;;;;;5.99;100.00;98002.94;5010975;28;20083;-66
2023/12/24 01:07:25;;;;;;;5.22;1.35;;;;;;;6.01;100.00;97997.66;5010893;28;20049;-66
2023/12/24 01:09:52;;;;;;;3.65;1.50;;;;;;;6.09;100.00;98003.16;5000797;28;20049;-66
2023/12/24 01:12:18;;;;;;;5.45;1.75;;;;;;;5.96;100.00;97997.09;5008814;28;20049;-66
2023/12/24 01:14:45;;;;;;;3.50;1.42;;;;;;;5.93;100.00;97999.84;5010684;28;20057;-66
2023/12/24 01:17:14;;;;;;;4.57;1.67;;;;;;;5.79;100.00;97985.13;4993599;28;20052;-66
2023/12/24 01:19:41;;;;;;;2.25;1.10;;;;;;;5.82;100.00;98005.72;5009222;28;20069;-66
2023/12/24 01:22:07;;;;;;;2.38;1.20;;;;;;;5.77;100.00;97990.44;5007827;28;20050;-66
2023/12/24 01:24:34;;;;;;;2.05;1.17;;;;;;;5.76;100.00;97999.13;5009832;28;20479;-66
2023/12/24 01:27:00;;;;;;;2.60;1.20;;;;;;;5.83;100.00;97999.59;5000353;28;20058;-66
2023/12/24 01:29:27;;;;;;;2.15;1.10;;;;;;;6.06;100.00;97998.19;4996693;28;20050;-66
2023/12/24 01:31:54;;;;;;;1.00;0.90;;;;;;;6.33;100.00;97989.56;5009916;28;20050;-65
2023/12/24 01:34:21;;;;;;;1.77;1.20;;;;;;;6.56;100.00;98001.91;5011014;28;20448;-65
2023/12/24 01:36:47;;;;;;;1.48;1.00;;;;;;;6.74;100.00;97989.47;5011121;28;20538;-66
2023/12/24 01:39:15;;;;;;;1.55;0.80;;;;;;;6.86;100.00;97974.84;5009874;28;20404;-66
2023/12/24 01:41:43;;;;;;;2.05;1.10;;;;;;;6.94;100.00;97977.78;5003259;28;20050;-65
2023/12/24 01:44:10;;;;;;;0.85;0.80;;;;;;;7.09;100.00;97978.50;5009423;28;20499;-66
2023/12/24 01:46:37;;;;;;;1.35;0.90;;;;;;;7.10;100.00;97984.53;5009209;28;20518;-65
2023/12/24 01:49:04;;;;;;;1.15;0.80;;;;;;;7.16;100.00;97978.94;5010356;28;20057;-66
2023/12/24 01:51:33;;;;;;;1.00;0.90;;;;;;;7.25;100.00;97975.69;5006175;28;20074;-66
2023/12/24 01:54:00;;;;;;;1.05;0.90;;;;;;;7.16;100.00;97979.75;5003391;28;20092;-66
2023/12/24 01:56:31;;;;;;;1.40;0.98;;;;;;;7.09;100.00;97969.88;5004765;28;20061;-66
2023/12/24 01:58:59;;;;;;;1.00;0.90;;;;;;;7.07;100.00;97982.16;5002895;28;20054;-66
2023/12/24 02:01:26;;;;;;;0.88;0.80;;;;;;;7.11;100.00;97970.59;5002752;28;20381;-66
2023/12/24 02:03:53;;;;;;;1.40;0.98;;;;;;;7.12;100.00;97977.44;5005778;28;20124;-66
2023/12/24 02:06:24;;;;;;;1.85;1.08;;;;;;;7.13;100.00;97971.31;4992173;28;20141;-66
2023/12/24 02:08:51;;;;;;;1.48;1.00;;;;;;;7.07;100.00;97966.53;5010295;28;20058;-65
2023/12/24 02:11:20;;;;;;;2.05;1.10;;;;;;;6.94;100.00;97958.72;5003536;28;20396;-66
2023/12/24 02:13:48;;;;;;;1.50;1.00;;;;;;;6.91;100.00;97966.75;5001944;28;20432;-66
2023/12/24 02:16:20;;;;;;;1.45;0.90;;;;;;;6.93;100.00;97965.69;5009816;28;20049;-66
2023/12/24 02:18:47;;;;;;;1.65;0.90;;;;;;;6.82;100.00;97966.41;5008508;28;20145;-66
2023/12/24 02:21:14;;;;;;;0.90;0.80;;;;;;;6.80;100.00;97957.88;5004850;28;20582;-66
2023/12/24 02:23:40;;;;;;;1.00;0.73;;;;;;;6.71;100.00;97945.50;5003683;28;20057;-66
2023/12/24 02:26:17;;;;;;;1.85;1.00;;;;;;;6.78;100.00;97945.91;5007918;28;20061;-66
2023/12/24 02:28:49;;;;;;;2.15;1.15;;;;;;;6.83;100.00;97951.63;5004007;28;20181;-65
2023/12/24 02:31:20;;;;;;;1.45;0.90;;;;;;;6.98;100.00;97950.63;5004138;28;20049;-66
2023/12/24 02:33:50;;;;;;;1.33;0.80;;;;;;;7.04;100.00;97947.56;5010254;28;20057;-66
2023/12/24 02:36:17;;;;;;;1.38;1.00;;;;;;;7.06;100.00;97955.28;4993872;28;20045;-66
2023/12/24 02:38:44;;;;;;;1.05;0.90;;;;;;;7.03;100.00;97943.34;5002291;28;20053;-66
2023/12/24 02:41:10;;;;;;;1.25;0.88;;;;;;;6.91;100.00;97938.13;4983946;28;20499;-66
2023/12/24 02:43:37;;;;;;;2.00;1.00;;;;;;;6.86;100.00;97933.22;5000940;28;20401;-66
2023/12/24 02:46:04;;;;;;;2.40;1.20;;;;;;;6.67;100.00;97922.38;5008552;28;20164;-66
2023/12/24 02:48:30;;;;;;;3.10;1.20;;;;;;;6.64;100.00;97919.06;5008797;28;20492;-66
2023/12/24 02:50:57;;;;;;;2.45;1.20;;;;;;;6.75;100.00;97913.13;5000859;28;20075;-66
2023/12/24 02:53:24;;;;;;;3.33;1.30;;;;;;;6.72;100.00;97918.53;5009742;28;20056;-66
2023/12/24 02:55:51;;;;;;;2.83;1.30;;;;;;;6.67;100.00;97907.59;5008829;28;20141;-66
2023/12/24 02:58:17;;;;;;;2.30;1.20;;;;;;;6.85;100.00;97902.94;5007504;28;20050;-66
2023/12/24 03:00:44;;;;;;;2.35;1.08;;;;;;;6.84;100.00;97903.91;5003715;28;20400;-66
2023/12/24 03:03:11;;;;;;;2.75;1.20;;;;;;;6.75;100.00;97900.13;5007562;28;20415;-66
2023/12/24 03:05:37;;;;;;;2.78;1.17;;;;;;;6.64;100.00;97900.84;5004528;28;20096;-66
2023/12/24 03:08:04;;;;;;;2.85;1.30;;;;;;;6.62;100.00;97896.69;5008201;28;20081;-66
2023/12/24 03:10:31;;;;;;;1.98;1.20;;;;;;;6.51;100.00;97896.56;5004127;28;20046;-66
2023/12/24 03:12:58;;;;;;;1.83;1.10;;;;;;;6.54;100.00;97889.41;5008160;28;20059;-66
2023/12/24 03:15:24;;;;;;;1.50;1.02;;;;;;;6.57;100.00;97886.59;5008371;28;20496;-66
2023/12/24 03:17:51;;;;;;;1.88;1.00;;;;;;;6.61;100.00;97871.63;4999342;28;20480;-65
2023/12/24 03:20:18;;;;;;;2.42;1.10;;;;;;;6.74;100.00;97869.03;5008979;28;20089;-66
2023/12/24 03:22:45;;;;;;;1.60;0.90;;;;;;;6.71;100.00;97866.63;5009409;28;20081;-66
2023/12/24 03:25:11;;;;;;;1.20;0.98;;;;;;;6.86;100.00;97865.59;5009104;28;20142;-66
2023/12/24 03:27:38;;;;;;;1.00;0.90;;;;;;;7.06;100.00;97866.81;5008271;28;20088;-66
2023/12/24 03:30:05;;;;;;;2.10;0.90;;;;;;;6.95;100.00;97857.16;5006155;28;20403;-66
2023/12/24 03:32:32;;;;;;;1.48;0.88;;;;;;;7.09;100.00;97863.19;5009093;28;20535;-65
2023/12/24 03:34:59;;;;;;;0.80;0.80;;;;;;;7.12;100.00;97860.38;5007815;28;20087;-66
2023/12/24 03:37:26;;;;;;;1.00;0.90;;;;;;;7.09;100.00;97873.59;5007665;28;20077;-66
2023/12/24 03:39:52;;;;;;;2.13;1.00;;;;;;;7.03;100.00;97867.06;5009292;28;20050;-66
2023/12/24 03:42:19;;;;;;;1.40;0.90;;;;;;;7.18;100.00;97871.19;5000885;28;20140;-66
2023/12/24 03:44:46;;;;;;;1.17;0.90;;;;;;;7.29;100.00;97870.44;5008590;28;20491;-66
2023/12/24 03:47:12;;;;;;;1.52;0.90;;;;;;;7.50;100.00;97860.28;5004198;28;20054;-66
2023/12/24 03:49:39;;;;;;;1.90;1.00;;;;;;;7.66;100.00;97867.84;5008359;28;20162;-66
2023/12/24 03:52:05;;;;;;;1.38;0.90;;;;;;;7.72;100.00;97859.59;4998092;28;20050;-66
2023/12/24 03:54:32;;;;;;;2.05;1.00;;;;;;;7.65;100.00;97852.31;5005882;28;20053;-66
2023/12/24 03:56:59;;;;;;;1.83;1.00;;;;;;;7.66;100.00;97856.59;5008216;28;20053;-66
2023/12/24 03:59:26;;;;;;;1.08;0.90;;;;;;;7.75;100.00;97856.75;5006473;28;20064;-65
2023/12/24 04:01:53;;;;;;;1.30;0.90;;;;;;;7.84;100.00;97857.88;5007795;28;20054;-66
2023/12/24 04:04:19;;;;;;;1.45;0.90;;;;;;;7.83;100.00;97856.22;5008049;28;20050;-66
2023/12/24 04:06:46;;;;;;;2.33;1.00;;;;;;;7.76;100.00;97847.19;5007280;28;20448;-66
2023/12/24 04:09:13;;;;;;;1.60;0.95;;;;;;;7.72;100.00;97838.75;5005023;28;20129;-66
2023/12/24 04:11:40;;;;;;;2.00;1.10;;;;;;;7.69;100.00;97828.56;4994765;28;20054;-66
2023/12/24 04:14:06;;;;;;;1.40;0.90;;;;;;;7.65;100.00;97828.88;4998336;28;20049;-66
2023/12/24 04:16:33;;;;;;;1.60;0.90;;;;;;;7.67;100.00;97820.03;5012456;28;20530;-65
2023/12/24 04:19:00;;;;;;;1.00;0.90;;;;;;;7.65;100.00;97803.69;5012272;28;20073;-66
2023/12/24 04:21:27;;;;;;;3.00;1.00;;;;;;;7.39;100.00;97792.53;4997190;28;20085;-66
2023/12/24 04:23:54;;;;;;;1.17;0.90;;;;;;;7.68;100.00;97810.44;5008325;28;20050;-66
2023/12/24 04:26:21;;;;;;;1.85;0.90;;;;;;;7.63;100.00;97795.13;5004446;28;20133;-66
2023/12/24 04:28:47;;;;;;;2.33;0.90;;;;;;;7.79;100.00;97794.84;5012249;28;20092;-66
2023/12/24 04:31:14;;;;;;;1.52;0.90;;;;;;;7.91;100.00;97804.38;5000898;28;20055;-66
2023/12/24 04:33:41;;;;;;;1.55;0.80;;;;;;;7.99;100.00;97799.44;5009276;28;20069;-66
2023/12/24 04:36:08;;;;;;;2.25;1.10;;;;;;;8.14;100.00;97801.84;4989726;28;20046;-66
2023/12/24 04:38:34;;;;;;;3.03;1.17;;;;;;;8.22;100.00;97798.69;5006228;28;20064;-66
2023/12/24 04:41:01;;;;;;;2.35;1.00;;;;;;;8.17;100.00;97807.66;4994444;28;20049;-66
2023/12/24 04:43:28;;;;;;;2.22;0.95;;;;;;;8.16;100.00;97799.97;4994554;28;20051;-66
2023/12/24 04:45:55;;;;;;;1.60;0.90;;;;;;;8.28;100.00;97774.75;4999638;28;20526;-66
2023/12/24 04:48:22;;;;;;;2.25;0.88;;;;;;;8.29;100.00;97792.06;5011329;28;20510;-66
2023/12/24 04:50:49;;;;;;;1.10;0.88;;;;;;;8.39;100.00;97784.38;5004695;28;20107;-66
2023/12/24 04:53:16;;;;;;;1.48;1.00;;;;;;;8.27;100.00;97775.69;5005376;28;20081;-66
2023/12/24 04:55:44;;;;;;;1.40;0.90;;;;;;;8.41;100.00;97762.47;5005174;28;20137;-66
2023/12/24 04:58:10;;;;;;;1.80;0.90;;;;;;;8.42;100.00;97750.25;5011284;28;20050;-66
2023/12/24 05:00:37;;;;;;;2.97;1.00;;;;;;;8.20;100.00;97754.50;5006910;28;20038;-66
2023/12/24 05:03:04;;;;;;;1.65;0.88;;;;;;;8.39;100.00;97756.50;5003789;28;20536;-66
2023/12/24 05:05:30;;;;;;;1.58;0.80;;;;;;;8.35;100.00;97748.09;5009813;28;20065;-66
2023/12/24 05:07:57;;;;;;;0.88;0.80;;;;;;;8.37;100.00;97750.59;5011375;28;20096;-66
2023/12/24 05:10:24;;;;;;;2.20;0.90;;;;;;;8.40;100.00;97755.59;5008877;28;20054;-66
2023/12/24 05:12:50;;;;;;;1.48;0.90;;;;;;;8.46;100.00;97743.88;5011289;28;20058;-66
2023/12/24 05:15:18;;;;;;;1.08;0.70;;;;;;;8.36;100.00;97720.28;5008623;28;20487;-66
2023/12/24 05:17:44;;;;;;;2.00;1.00;;;;;;;8.08;100.00;97711.94;5010930;28;20407;-66
2023/12/24 05:20:11;;;;;;;1.50;0.80;;;;;;;8.08;100.00;97727.56;5008857;28;20488;-66
2023/12/24 05:22:38;;;;;;;0.80;0.80;;;;;;;8.05;100.00;97729.59;5006028;28;20060;-66
2023/12/24 05:25:05;;;;;;;1.70;1.00;;;;;;;7.89;100.00;97730.72;4989527;28;20046;-66
2023/12/24 05:27:31;;;;;;;1.40;0.90;;;;;;;7.74;100.00;97732.69;5007734;28;20049;-66
2023/12/24 05:29:58;;;;;;;1.73;0.90;;;;;;;7.70;100.00;97723.47;4990798;28;20419;-66
2023/12/24 05:32:24;;;;;;;1.88;1.10;;;;;;;7.93;100.00;97707.88;5006146;28;20053;-66
2023/12/24 05:34:51;;;;;;;1.77;0.90;;;;;;;7.98;100.00;97703.16;5003073;28;20058;-66
2023/12/24 05:37:18;;;;;;;1.02;0.90;;;;;;;8.37;100.00;97711.50;5007458;28;20408;-66
2023/12/24 05:39:45;;;;;;;1.50;0.95;;;;;;;8.36;100.00;97704.63;5004346;28;20057;-66
2023/12/24 05:42:12;;;;;;;2.03;1.42;;;;;;;8.46;100.00;97691.72;5006781;28;20464;-66
2023/12/24 05:44:38;;;;;;;1.33;0.93;;;;;;;8.65;100.00;97704.19;5009830;28;20064;-66
2023/12/24 05:47:05;;;;;;;0.85;0.80;;;;;;;8.81;100.00;97703.81;5009624;28;20127;-66
2023/12/24 05:49:33;;;;;;;1.63;0.90;;;;;;;8.69;100.00;97685.56;5009872;28;20054;-66
2023/12/24 05:52:00;;;;;;;2.95;0.90;;;;;;;8.65;100.00;97694.56;5007286;28;20142;-65
2023/12/24 05:54:27;;;;;;;1.10;0.80;;;;;;;8.70;100.00;97673.34;5009588;28;20057;-65
2023/12/24 05:56:53;;;;;;;2.05;0.95;;;;;;;8.59;100.00;97668.13;5011111;28;20487;-66
2023/12/24 05:59:24;;;;;;;2.00;0.80;;;;;;;8.72;100.00;97666.22;4999666;28;20522;-66
2023/12/24 06:01:50;;;;;;;1.05;0.80;;;;;;;8.83;100.00;97658.38;5007183;28;20045;-66
2023/12/24 06:04:17;;;;;;;1.25;0.80;;;;;;;8.60;100.00;97649.75;5009623;28;20050;-66
2023/12/24 06:06:43;;;;;;;1.70;0.90;;;;;;;8.88;100.00;97661.44;5008618;28;20081;-66
2023/12/24 06:09:10;;;;;;;1.13;0.80;;;;;;;8.95;100.00;97660.97;4997076;28;20090;-66
2023/12/24 06:11:37;;;;;;;0.80;0.80;;;;;;;8.87;100.00;97641.53;5009204;28;20479;-65
2023/12/24 06:14:04;;;;;;;2.17;1.00;;;;;;;8.76;100.00;97627.69;5009547;28;20053;-66
2023/12/24 06:16:30;;;;;;;1.33;0.90;;;;;;;9.35;100.00;97663.81;5009805;28;20058;-66
2023/12/24 06:18:57;;;;;;;2.05;0.82;;;;;;;9.58;100.00;97641.03;5010245;28;20055;-66
2023/12/24 06:21:24;;;;;;;2.58;0.82;;;;;;;9.54;100.00;97634.38;5006791;28;20451;-66
2023/12/24 06:23:52;;;;;;;1.77;0.90;;;;;;;9.45;100.00;97646.41;5008676;28;20606;-66
2023/12/24 06:26:19;;;;;;;1.42;0.90;;;;;;;9.58;100.00;97621.88;5009266;28;20058;-66
2023/12/24 06:28:45;;;;;;;1.85;0.82;;;;;;;9.57;100.00;97622.84;5006338;28;20081;-66
2023/12/24 06:31:22;;;;;;;0.80;0.80;;;;;;;9.56;100.00;97626.41;5006485;28;20049;-66
2023/12/24 06:33:49;;;;;;;0.80;0.80;;;;;;;9.38;100.00;97621.75;4997250;28;20491;-66
2023/12/24 06:36:17;;;;;;;2.13;1.00;;;;;;;9.31;100.00;97629.28;4992118;28;20139;-66
2023/12/24 06:38:44;;;;;;;3.00;1.00;;;;;;;9.42;100.00;97615.34;5008356;28;20072;-66
2023/12/24 06:41:11;;;;;;;0.80;0.80;;;;;;;9.39;100.00;97612.97;5008359;28;20498;-66
2023/12/24 06:43:38;;;;;;;0.80;0.70;;;;;;;9.47;100.00;97610.56;5008386;28;20561;-66
2023/12/24 06:46:12;;;;;;;1.55;0.88;;;;;;;9.39;100.00;97607.75;5003793;28;20571;-66
2023/12/24 06:48:39;;;;;;;1.92;0.98;;;;;;;9.42;100.00;97604.06;5010433;28;20124;-66
2023/12/24 06:51:07;;;;;;;1.67;0.88;;;;;;;9.29;100.00;97607.66;5008241;28;20045;-66
2023/12/24 06:53:34;;;;;;;4.90;1.25;;;;;;;9.25;100.00;97601.06;5008708;28;20057;-66
2023/12/24 06:56:01;;;;;;;1.48;0.90;;;;;;;9.38;100.00;97605.25;5009574;28;20085;-66
2023/12/24 06:58:28;;;;;;;0.95;0.80;;;;;;;9.48;100.00;97609.59;5009837;28;20054;-66
2023/12/24 07:00:55;;;;;;;1.88;0.93;;;;;;;9.46;100.00;97615.91;4996817;28;20050;-66
2023/12/24 07:03:22;;;;;;;2.45;0.90;;;;;;;9.59;100.00;97618.34;5010094;28;20046;-66
2023/12/24 07:05:48;;;;;;;1.88;0.80;;;;;;;9.49;100.00;97619.09;5000259;28;20082;-65
2023/12/24 07:08:15;;;;;;;1.90;0.85;;;;;;;9.34;100.00;97615.13;5008176;28;20050;-66
2023/12/24 07:10:43;;;;;;;2.03;0.88;;;;;;;9.40;100.00;97613.78;5001754;28;20129;-66
2023/12/24 07:13:10;;;;;;;1.10;0.90;;;;;;;9.31;100.00;97618.84;5008646;28;20089;-66
2023/12/24 07:15:42;;;;;;;1.75;0.90;;;;;;;9.56;100.00;97618.56;4991243;28;20511;-66
2023/12/24 07:18:09;;;;;;;1.75;1.00;;;;;;;9.66;100.00;97617.69;5009769;28;20133;-66
2023/12/24 07:20:36;;;;;;;1.23;0.80;;;;;;;9.74;100.00;97624.03;5007181;28;20327;-66
2023/12/24 07:23:03;;;;;;;1.40;0.80;;;;;;;9.72;100.00;97632.03;4993846;28;20488;-66
2023/12/24 07:25:29;;;;;;;1.20;0.90;;;;;;;9.67;100.00;97624.56;4997244;28;20109;-66
2023/12/24 07:27:56;;;;;;;3.90;0.80;;;;;;;9.74;100.00;97624.03;5005023;28;20080;-66
2023/12/24 07:30:23;;;;;;;4.30;0.90;;;;;;;9.68;100.00;97626.25;4999885;28;20050;-66
2023/12/24 07:32:49;;;;;;;2.47;1.10;;;;;;;9.63;100.00;97619.72;5001070;28;20043;-66
2023/12/24 07:35:17;;;;;;;2.08;0.90;;;;;;;9.57;100.00;97618.44;4986442;28;20267;-66
2023/12/24 07:37:43;;;;;;;2.55;0.90;;;;;;;9.54;100.00;97612.66;4999335;28;20483;-66
2023/12/24 07:40:10;;;;;;;2.40;0.88;;;;;;;9.56;100.00;97618.56;4998402;28;20066;-66
2023/12/24 07:42:37;;;;;;;1.85;0.93;;;;;;;9.60;100.00;97633.06;4999495;28;20639;-66
2023/12/24 07:45:05;;;;;;;2.78;1.00;;;;;;;9.55;100.00;97641.25;5005493;28;20049;-66
2023/12/24 07:47:31;;;;;;;3.17;1.00;;;;;;;9.54;100.00;97625.72;5003152;28;20057;-66
2023/12/24 07:49:58;;;;;;;3.17;1.00;;;;;;;9.59;100.00;97627.00;5004179;28;20050;-66
2023/12/24 07:52:25;;;;;;;1.92;1.00;;;;;;;9.43;100.00;97616.16;5004807;28;20046;-66
2023/12/24 07:54:52;;;;;;;3.50;1.10;;;;;;;9.50;100.00;97610.28;5011108;28;20049;-65
2023/12/24 07:57:19;;;;;;;3.50;1.20;;;;;;;9.40;100.00;97601.59;5012837;28;20050;-66
2023/12/24 07:59:46;;;;;;;4.43;1.30;;;;;;;9.28;100.00;97615.66;5013091;28;20073;-66
2023/12/24 08:02:12;;;;;;;4.13;1.13;;;;;;;9.27;100.00;97614.00;5003434;28;20055;-66
2023/12/24 08:04:39;;;;;;;5.32;1.63;;;;;;;9.31;100.00;97625.81;5007052;28;20060;-66
2023/12/24 08:07:06;;;;;;;6.82;1.27;;;;;;;9.16;100.00;97622.69;4994351;28;20505;-66
2023/12/24 08:09:33;;;;;;;3.67;1.30;;;;;;;9.24;100.00;97635.97;4994259;28;20141;-66
2023/12/24 08:11:59;;;;;;;4.20;1.30;;;;;;;9.36;100.00;97646.34;5007731;28;20056;-66
2023/12/24 08:14:26;;;;;;;2.42;1.20;;;;;;;9.22;100.00;97640.44;5009290;28;20058;-66
2023/12/24 08:16:53;;;;;;;1.60;0.90;;;;;;;9.20;100.00;97631.91;5007604;28;20085;-66
2023/12/24 08:19:19;;;;;;;9.98;1.48;;;;;;;9.00;100.00;97609.25;5006522;28;20057;-66
2023/12/24 08:21:46;;;;;;;6.13;1.85;;;;;;;9.00;100.00;97604.03;5004024;28;20052;-66
2023/12/24 08:24:13;;;;;;;7.28;1.40;;;;;;;8.86;100.00;97595.53;5010681;28;20046;-66
2023/12/24 08:26:41;;;;;;;8.07;1.70;;;;;;;8.81;100.00;97582.00;4998649;28;20408;-66
2023/12/24 08:29:07;;;;;;;6.85;1.40;;;;;;;8.59;100.00;97585.53;5003797;28;20046;-66
2023/12/24 08:31:34;;;;;;;6.80;1.73;;;;;;;8.51;100.00;97588.72;4999580;28;20050;-65
2023/12/24 08:34:01;;;;;;;9.82;1.83;;;;;;;8.63;100.00;97606.97;4996302;28;20058;-66
2023/12/24 08:36:28;;;;;;;6.20;1.67;;;;;;;8.53;100.00;97612.94;5008754;28;20724;-66
2023/12/24 08:38:54;;;;;;;8.30;2.42;;;;;;;8.49;100.00;97615.88;5005313;28;20084;-66
2023/12/24 08:41:21;;;;;;;6.57;1.70;;;;;;;8.49;100.00;97606.28;5009283;28;20046;-66
2023/12/24 08:43:48;;;;;;;6.05;1.67;;;;;;;8.49;100.00;97589.81;5009573;28;20100;-66
2023/12/24 08:46:14;;;;;;;5.57;1.50;;;;;;;8.56;100.00;97598.81;5011219;28;20061;-66
2023/12/24 08:48:41;;;;;;;5.57;1.40;;;;;;;8.59;100.00;97600.31;4979901;28;20133;-66
2023/12/24 08:51:08;;;;;;;8.10;1.80;;;;;;;8.49;100.00;97597.63;5004348;28;20141;-65
2023/12/24 08:53:34;;;;;;;9.02;2.00;;;;;;;8.43;100.00;97593.75;5003918;28;20064;-66
2023/12/24 08:56:01;;;;;;;9.50;2.50;;;;;;;8.35;100.00;97604.72;5007019;28;20061;-66
2023/12/24 08:58:28;;;;;;;7.05;1.75;;;;;;;8.24;100.00;97601.31;5012278;28;20060;-66
2023/12/24 09:00:55;;;;;;;6.72;1.63;;;;;;;8.36;100.00;97576.88;5006963;28;20490;-66
2023/12/24 09:03:21;;;;;;;10.57;2.20;;;;;;;8.32;100.00;97597.16;5008537;28;20141;-66
2023/12/24 09:05:48;;;;;;;8.60;1.95;;;;;;;8.28;100.00;97592.28;5004018;28;20049;-66
2023/12/24 09:08:15;;;;;;;7.25;1.75;;;;;;;8.38;100.00;97582.00;5008911;28;20436;-66
2023/12/24 09:10:41;;;;;;;7.65;2.65;;;;;;;8.38;100.00;97580.19;5007718;28;20102;-66
2023/12/24 09:13:08;;;;;;;3.95;1.40;;;;;;;8.55;100.00;97573.66;5010577;28;20042;-66
2023/12/24 09:15:35;;;;;;;10.02;1.90;;;;;;;8.46;100.00;97562.19;5006607;28;20499;-65
2023/12/24 09:18:02;;;;;;;6.32;1.67;;;;;;;8.33;100.00;97554.47;5011524;28;20144;-66
2023/12/24 09:20:28;;;;;;;5.20;1.50;;;;;;;8.51;100.00;97557.44;5009152;28;20054;-66
2023/12/24 09:22:55;;;;;;;5.50;1.52;;;;;;;8.41;100.00;97547.84;5008648;28;20467;-66
2023/12/24 09:25:22;;;;;;;6.85;1.80;;;;;;;8.34;100.00;97518.84;5005546;28;20054;-65
2023/12/24 09:27:48;;;;;;;7.63;1.52;;;;;;;8.28;100.00;97519.31;5011426;28;20060;-65
2023/12/24 09:30:15;;;;;;;6.05;1.80;;;;;;;8.33;100.00;97531.03;5007690;28;20054;-65
2023/12/24 09:32:43;;;;;;;4.90;1.40;;;;;;;8.26;100.00;97526.44;4993730;28;20458;-65
2023/12/24 09:35:10;;;;;;;5.88;1.33;;;;;;;8.22;100.00;97504.19;5010141;28;20053;-65
2023/12/24 09:37:37;;;;;;;3.70;1.40;;;;;;;8.22;100.00;97510.22;5009747;28;20462;-65
2023/12/24 09:40:04;;;;;;;12.85;1.92;;;;;;;8.15;100.00;97507.25;5007762;28;20060;-67
2023/12/24 09:42:30;;;;;;;6.80;1.92;;;;;;;8.20;100.00;97514.72;5009031;28;20403;-65
2023/12/24 09:44:57;;;;;;;12.25;1.98;;;;;;;8.25;100.00;97502.16;5007879;28;20133;-65
2023/12/24 09:47:24;;;;;;;8.85;2.25;;;;;;;8.30;100.00;97504.38;5010626;28;20512;-65
2023/12/24 09:49:51;;;;;;;6.10;1.63;;;;;;;8.30;100.00;97509.59;5010164;28;20054;-65
2023/12/24 09:52:19;;;;;;;10.32;2.67;;;;;;;8.31;100.00;97501.66;5000205;28;20042;-65
2023/12/24 09:54:46;;;;;;;12.35;2.00;;;;;;;8.32;100.00;97508.53;5003612;28;20058;-65
2023/12/24 09:57:13;;;;;;;13.05;2.45;;;;;;;8.43;100.00;97501.63;5009335;28;20060;-65
2023/12/24 09:59:39;;;;;;;13.10;2.83;;;;;;;8.53;100.00;97485.16;4998757;28;20050;-66
2023/12/24 10:02:06;;;;;;;11.63;2.10;;;;;;;8.53;100.00;97500.81;5005919;28;20123;-67
2023/12/24 10:04:33;;;;;;;11.10;3.40;;;;;;;8.54;100.00;97493.78;5008125;28;20062;-65
2023/12/24 10:07:00;;;;;;;9.20;1.80;;;;;;;8.64;100.00;97494.72;4999812;28;20057;-65
2023/12/24 10:09:47;;;;;;;7.35;1.50;;;;;;;8.86;100.00;97478.13;4996938;28;20100;-65
2023/12/24 10:12:14;;;;;;;10.40;2.42;;;;;;;8.81;100.00;97482.06;5000091;28;20053;-65
2023/12/24 10:14:52;;;;;;;6.78;1.95;;;;;;;8.68;100.00;97475.25;5007408;28;20057;-65
2023/12/24 10:17:30;;;;;;;8.55;1.77;;;;;;;8.76;100.00;97474.59;5004740;28;20049;-65
2023/12/24 10:19:58;;;;;;;11.98;2.10;;;;;;;8.84;100.00;97494.88;4996098;28;20045;-66
2023/12/24 10:22:25;;;;;;;6.90;1.65;;;;;;;8.91;100.00;97502.03;5008135;28;20060;-66
2023/12/24 10:25:00;;;;;;;5.25;1.80;;;;;;;8.77;100.00;97483.28;5005970;28;20046;-66
2023/12/24 10:27:27;;;;;;;8.73;1.80;;;;;;;8.87;100.00;97498.03;5006160;28;20049;-65
2023/12/24 10:29:55;;;;;;;3.88;1.35;;;;;;;8.90;100.00;97495.16;4996490;28;20045;-66
2023/12/24 10:32:23;;;;;;;4.30;1.58;;;;;;;8.92;100.00;97488.06;5001210;28;20069;-66
2023/12/24 10:34:57;;;;;;;6.60;1.52;;;;;;;8.91;100.00;97486.41;5003548;28;20416;-66
2023/12/24 10:37:29;;;;;;;3.80;1.20;;;;;;;8.94;100.00;97487.91;5006958;28;20626;-66
2023/12/24 10:40:09;;;;;;;8.15;1.73;;;;;;;8.90;100.00;97487.34;5008676;28;20049;-66
2023/12/24 10:42:37;;;;;;;7.72;2.55;;;;;;;8.85;100.00;97473.88;5007193;28;20046;-66
2023/12/24 10:45:08;;;;;;;6.65;1.90;;;;;;;8.95;100.00;97478.31;5006118;28;20053;-66
2023/12/24 10:47:35;;;;;;;8.50;1.83;;;;;;;9.05;100.00;97469.59;4993046;28;20054;-66
2023/12/24 10:50:03;;;;;;;7.30;1.60;;;;;;;9.10;100.00;97469.19;4989615;28;20054;-66
2023/12/24 10:52:30;;;;;;;14.65;2.03;;;;;;;9.25;100.00;97464.47;5004770;28;20441;-66
2023/12/24 10:54:59;;;;;;;7.57;1.80;;;;;;;9.42;100.00;97455.22;5006099;28;20046;-66
2023/12/24 10:57:41;;;;;;;8.55;2.08;;;;;;;9.52;100.00;97453.47;5004887;28;20061;-66
2023/12/24 11:00:12;;;;;;;7.05;1.70;;;;;;;9.55;100.00;97442.78;5004184;28;20053;-66
2023/12/24 11:02:47;;;;;;;7.57;1.45;;;;;;;9.63;100.00;97442.94;4996628;28;20069;-66
2023/12/24 11:05:51;;;;;;;6.13;1.60;;;;;;;9.78;100.00;97445.19;4993902;28;20193;-66
2023/12/24 11:08:21;;;;;;;5.28;1.63;;;;;;;9.61;100.00;97449.25;4996949;28;20108;-65
2023/12/24 11:11:06;;;;;;;3.58;1.27;;;;;;;9.84;100.00;97455.94;5001559;28;20084;-65
2023/12/24 11:13:36;;;;;;;4.20;1.20;;;;;;;9.76;100.00;97447.94;4999256;28;20459;-65
2023/12/24 11:16:06;;;;;;;3.92;1.35;;;;;;;9.78;100.00;97430.31;4993489;28;20140;-66
2023/12/24 11:18:48;;;;;;;4.70;1.70;;;;;;;9.82;100.00;97433.50;5006757;28;20141;-66
2023/12/24 11:21:19;;;;;;;7.85;1.73;;;;;;;9.93;100.00;97420.31;4999796;28;20427;-66
2023/12/24 11:24:21;;;;;;;9.20;1.67;;;;;;;10.10;100.00;97420.63;5010476;28;20046;-66
2023/12/24 11:26:51;;;;;;;4.90;1.73;;;;;;;10.07;100.00;97427.78;4952207;28;20152;-66
2023/12/24 11:29:47;;;;;;;8.68;2.17;;;;;;;10.09;100.00;97417.16;4996689;28;20476;-66
2023/12/24 11:32:26;;;;;;;8.27;2.33;;;;;;;9.99;100.00;97421.59;5000945;28;20052;-66
2023/12/24 11:34:56;;;;;;;7.10;1.85;;;;;;;9.92;100.00;97426.50;5013249;28;20050;-66
2023/12/24 11:37:29;;;;;;;5.18;1.60;;;;;;;10.08;100.00;97412.94;5013223;28;20049;-66